sensor_id;sensor_type;location;lat;lon;timestamp;P1;durP1;ratioP1;P2;durP2;ratioP2
80926;SDS011;70385;44.538;18.532;2024-01-10T00:00:31;88.40;;;37.10;;
80926;SDS011;70385;44.538;18.532;2024-01-10T00:02:57;131.10;;;48.95;;
80926;SDS011;70385;44.538;18.532;2024-01-10T00:05:25;258.25;;;102.70;;
80926;SDS011;70385;44.538;18.532;2024-01-10T00:08:17;340.83;;;121.28;;
80926;SDS011;70385;44.538;18.532;2024-01-10T00:10:55;328.73;;;118.35;;
80926;SDS011;70385;44.538;18.532;2024-01-10T00:13:21;322.33;;;122.07;;
80926;SDS011;70385;44.538;18.532;2024-01-10T00:15:48;300.00;;;112.47;;
80926;SDS011;70385;44.538;18.532;2024-01-10T00:18:17;237.68;;;93.43;;
80926;SDS011;70385;44.538;18.532;2024-01-10T00:20:48;259.98;;;98.30;;
80926;SDS011;70385;44.538;18.532;2024-01-10T00:23:14;268.45;;;101.72;;
80926;SDS011;70385;44.538;18.532;2024-01-10T00:25:55;217.05;;;86.28;;
80926;SDS011;70385;44.538;18.532;2024-01-10T00:28:21;164.63;;;66.72;;
80926;SDS011;70385;44.538;18.532;2024-01-10T00:30:49;148.02;;;59.35;;
80926;SDS011;70385;44.538;18.532;2024-01-10T00:33:15;116.70;;;49.55;;
80926;SDS011;70385;44.538;18.532;2024-01-10T00:35:41;96.78;;;39.33;;
80926;SDS011;70385;44.538;18.532;2024-01-10T00:38:14;122.35;;;47.92;;
80926;SDS011;70385;44.538;18.532;2024-01-10T00:40:58;154.75;;;62.47;;
80926;SDS011;70385;44.538;18.532;2024-01-10T00:43:43;171.75;;;70.57;;
80926;SDS011;70385;44.538;18.532;2024-01-10T00:46:36;170.35;;;68.80;;
80926;SDS011;70385;44.538;18.532;2024-01-10T00:49:02;220.55;;;84.70;;
80926;SDS011;70385;44.538;18.532;2024-01-10T00:51:27;262.27;;;100.63;;
80926;SDS011;70385;44.538;18.532;2024-01-10T00:53:53;234.38;;;91.15;;
80926;SDS011;70385;44.538;18.532;2024-01-10T00:56:19;207.00;;;82.53;;
80926;SDS011;70385;44.538;18.532;2024-01-10T00:58:45;224.15;;;87.45;;
80926;SDS011;70385;44.538;18.532;2024-01-10T01:01:11;223.60;;;86.47;;
80926;SDS011;70385;44.538;18.532;2024-01-10T01:03:37;187.02;;;73.78;;
80926;SDS011;70385;44.538;18.532;2024-01-10T01:06:03;197.50;;;86.55;;
80926;SDS011;70385;44.538;18.532;2024-01-10T01:08:30;239.95;;;100.10;;
80926;SDS011;70385;44.538;18.532;2024-01-10T01:10:56;230.93;;;96.88;;
80926;SDS011;70385;44.538;18.532;2024-01-10T01:13:22;178.13;;;69.18;;
80926;SDS011;70385;44.538;18.532;2024-01-10T01:15:48;193.82;;;76.82;;
80926;SDS011;70385;44.538;18.532;2024-01-10T01:18:15;174.07;;;69.60;;
80926;SDS011;70385;44.538;18.532;2024-01-10T01:20:45;158.45;;;63.42;;
80926;SDS011;70385;44.538;18.532;2024-01-10T01:23:14;175.07;;;65.57;;
80926;SDS011;70385;44.538;18.532;2024-01-10T01:25:40;147.00;;;59.80;;
80926;SDS011;70385;44.538;18.532;2024-01-10T01:44:23;244.15;;;99.93;;
80926;SDS011;70385;44.538;18.532;2024-01-10T01:46:50;235.70;;;94.97;;
80926;SDS011;70385;44.538;18.532;2024-01-10T01:49:17;158.10;;;63.05;;
80926;SDS011;70385;44.538;18.532;2024-01-10T01:51:43;204.10;;;83.75;;
80926;SDS011;70385;44.538;18.532;2024-01-10T01:54:09;192.60;;;78.68;;
80926;SDS011;70385;44.538;18.532;2024-01-10T01:56:36;195.18;;;78.38;;
80926;SDS011;70385;44.538;18.532;2024-01-10T01:59:04;197.13;;;74.90;;
80926;SDS011;70385;44.538;18.532;2024-01-10T02:01:30;203.70;;;77.88;;
80926;SDS011;70385;44.538;18.532;2024-01-10T02:03:56;164.50;;;63.88;;
80926;SDS011;70385;44.538;18.532;2024-01-10T02:06:22;162.25;;;64.40;;
80926;SDS011;70385;44.538;18.532;2024-01-10T02:08:50;141.43;;;58.42;;
80926;SDS011;70385;44.538;18.532;2024-01-10T02:11:18;131.13;;;55.38;;
80926;SDS011;70385;44.538;18.532;2024-01-10T02:17:12;146.68;;;66.65;;
80926;SDS011;70385;44.538;18.532;2024-01-10T02:19:39;147.52;;;64.45;;
80926;SDS011;70385;44.538;18.532;2024-01-10T02:22:05;133.80;;;58.47;;
80926;SDS011;70385;44.538;18.532;2024-01-10T02:24:31;144.50;;;62.28;;
80926;SDS011;70385;44.538;18.532;2024-01-10T02:26:57;146.60;;;60.28;;
80926;SDS011;70385;44.538;18.532;2024-01-10T02:29:24;119.63;;;51.28;;
80926;SDS011;70385;44.538;18.532;2024-01-10T02:31:52;117.13;;;51.45;;
80926;SDS011;70385;44.538;18.532;2024-01-10T02:34:18;138.40;;;54.88;;
80926;SDS011;70385;44.538;18.532;2024-01-10T02:36:46;136.32;;;54.45;;
80926;SDS011;70385;44.538;18.532;2024-01-10T02:39:11;127.72;;;51.72;;
80926;SDS011;70385;44.538;18.532;2024-01-10T02:41:37;135.48;;;54.45;;
80926;SDS011;70385;44.538;18.532;2024-01-10T02:44:03;128.63;;;51.20;;
80926;SDS011;70385;44.538;18.532;2024-01-10T02:46:30;114.70;;;50.53;;
80926;SDS011;70385;44.538;18.532;2024-01-10T02:48:56;129.23;;;51.72;;
80926;SDS011;70385;44.538;18.532;2024-01-10T02:51:22;109.90;;;46.22;;
80926;SDS011;70385;44.538;18.532;2024-01-10T02:53:47;119.43;;;50.42;;
80926;SDS011;70385;44.538;18.532;2024-01-10T03:04:20;118.53;;;48.03;;
80926;SDS011;70385;44.538;18.532;2024-01-10T03:06:46;119.13;;;48.08;;
80926;SDS011;70385;44.538;18.532;2024-01-10T03:12:54;131.90;;;51.05;;
80926;SDS011;70385;44.538;18.532;2024-01-10T03:17:56;130.95;;;57.05;;
80926;SDS011;70385;44.538;18.532;2024-01-10T03:20:24;143.40;;;60.45;;
80926;SDS011;70385;44.538;18.532;2024-01-10T03:22:52;160.85;;;63.05;;
80926;SDS011;70385;44.538;18.532;2024-01-10T03:25:18;152.73;;;59.17;;
80926;SDS011;70385;44.538;18.532;2024-01-10T03:31:32;128.23;;;50.55;;
80926;SDS011;70385;44.538;18.532;2024-01-10T03:33:58;139.88;;;56.90;;
80926;SDS011;70385;44.538;18.532;2024-01-10T03:36:24;161.35;;;64.93;;
80926;SDS011;70385;44.538;18.532;2024-01-10T03:38:50;171.70;;;67.05;;
80926;SDS011;70385;44.538;18.532;2024-01-10T03:41:16;183.35;;;73.07;;
80926;SDS011;70385;44.538;18.532;2024-01-10T03:43:46;189.15;;;72.57;;
80926;SDS011;70385;44.538;18.532;2024-01-10T03:46:19;160.38;;;65.40;;
80926;SDS011;70385;44.538;18.532;2024-01-10T03:48:45;159.45;;;64.22;;
80926;SDS011;70385;44.538;18.532;2024-01-10T03:51:17;165.25;;;65.47;;
80926;SDS011;70385;44.538;18.532;2024-01-10T03:53:44;155.77;;;65.28;;
80926;SDS011;70385;44.538;18.532;2024-01-10T03:56:18;156.85;;;64.68;;
80926;SDS011;70385;44.538;18.532;2024-01-10T03:58:43;154.75;;;64.22;;
80926;SDS011;70385;44.538;18.532;2024-01-10T04:01:14;146.85;;;62.17;;
80926;SDS011;70385;44.538;18.532;2024-01-10T04:03:40;157.50;;;66.75;;
80926;SDS011;70385;44.538;18.532;2024-01-10T04:06:10;168.95;;;71.28;;
80926;SDS011;70385;44.538;18.532;2024-01-10T04:08:36;172.57;;;72.60;;
80926;SDS011;70385;44.538;18.532;2024-01-10T04:11:02;195.32;;;75.60;;
80926;SDS011;70385;44.538;18.532;2024-01-10T04:13:28;194.75;;;74.53;;
80926;SDS011;70385;44.538;18.532;2024-01-10T04:15:54;175.48;;;69.35;;
80926;SDS011;70385;44.538;18.532;2024-01-10T04:18:23;176.32;;;70.68;;
80926;SDS011;70385;44.538;18.532;2024-01-10T04:20:49;176.95;;;73.07;;
80926;SDS011;70385;44.538;18.532;2024-01-10T04:23:19;201.07;;;74.85;;
80926;SDS011;70385;44.538;18.532;2024-01-10T04:25:47;182.02;;;69.22;;
80926;SDS011;70385;44.538;18.532;2024-01-10T04:28:13;177.07;;;70.72;;
80926;SDS011;70385;44.538;18.532;2024-01-10T04:30:39;167.73;;;70.93;;
80926;SDS011;70385;44.538;18.532;2024-01-10T04:33:08;172.65;;;72.07;;
80926;SDS011;70385;44.538;18.532;2024-01-10T04:35:33;195.00;;;73.97;;
80926;SDS011;70385;44.538;18.532;2024-01-10T04:38:00;163.18;;;67.25;;
80926;SDS011;70385;44.538;18.532;2024-01-10T04:40:26;165.80;;;64.65;;
80926;SDS011;70385;44.538;18.532;2024-01-10T04:42:51;163.93;;;67.75;;
80926;SDS011;70385;44.538;18.532;2024-01-10T04:45:17;159.60;;;72.55;;
80926;SDS011;70385;44.538;18.532;2024-01-10T04:47:43;151.95;;;65.25;;
80926;SDS011;70385;44.538;18.532;2024-01-10T04:50:10;156.27;;;67.82;;
80926;SDS011;70385;44.538;18.532;2024-01-10T04:52:36;168.77;;;69.70;;
80926;SDS011;70385;44.538;18.532;2024-01-10T04:55:02;185.02;;;72.70;;
80926;SDS011;70385;44.538;18.532;2024-01-10T04:57:31;218.75;;;79.75;;
80926;SDS011;70385;44.538;18.532;2024-01-10T04:59:57;227.07;;;81.15;;
80926;SDS011;70385;44.538;18.532;2024-01-10T05:02:25;302.33;;;95.55;;
80926;SDS011;70385;44.538;18.532;2024-01-10T05:04:54;337.25;;;104.38;;
80926;SDS011;70385;44.538;18.532;2024-01-10T05:07:20;263.98;;;94.95;;
80926;SDS011;70385;44.538;18.532;2024-01-10T05:09:45;311.58;;;113.20;;
80926;SDS011;70385;44.538;18.532;2024-01-10T05:12:11;313.40;;;121.30;;
80926;SDS011;70385;44.538;18.532;2024-01-10T05:14:37;351.55;;;133.02;;
80926;SDS011;70385;44.538;18.532;2024-01-10T05:17:04;383.38;;;145.85;;
80926;SDS011;70385;44.538;18.532;2024-01-10T05:19:29;344.92;;;132.52;;
80926;SDS011;70385;44.538;18.532;2024-01-10T05:21:57;306.63;;;120.55;;
80926;SDS011;70385;44.538;18.532;2024-01-10T05:24:24;307.52;;;112.57;;
80926;SDS011;70385;44.538;18.532;2024-01-10T05:26:50;307.45;;;118.43;;
80926;SDS011;70385;44.538;18.532;2024-01-10T05:29:19;295.90;;;120.07;;
80926;SDS011;70385;44.538;18.532;2024-01-10T05:31:47;268.40;;;106.05;;
80926;SDS011;70385;44.538;18.532;2024-01-10T05:34:13;288.00;;;109.47;;
80926;SDS011;70385;44.538;18.532;2024-01-10T05:36:39;289.85;;;98.05;;
80926;SDS011;70385;44.538;18.532;2024-01-10T05:39:05;284.73;;;97.78;;
80926;SDS011;70385;44.538;18.532;2024-01-10T05:41:31;273.85;;;102.63;;
80926;SDS011;70385;44.538;18.532;2024-01-10T05:44:00;281.88;;;100.78;;
80926;SDS011;70385;44.538;18.532;2024-01-10T05:46:27;290.42;;;105.90;;
80926;SDS011;70385;44.538;18.532;2024-01-10T05:48:53;257.17;;;106.05;;
80926;SDS011;70385;44.538;18.532;2024-01-10T05:51:20;263.85;;;107.57;;
80926;SDS011;70385;44.538;18.532;2024-01-10T05:53:48;269.15;;;107.70;;
80926;SDS011;70385;44.538;18.532;2024-01-10T05:56:14;248.00;;;101.03;;
80926;SDS011;70385;44.538;18.532;2024-01-10T05:58:40;272.80;;;103.32;;
80926;SDS011;70385;44.538;18.532;2024-01-10T06:01:06;294.98;;;102.63;;
80926;SDS011;70385;44.538;18.532;2024-01-10T06:03:35;308.90;;;106.47;;
80926;SDS011;70385;44.538;18.532;2024-01-10T06:06:04;275.90;;;109.50;;
80926;SDS011;70385;44.538;18.532;2024-01-10T06:08:30;267.85;;;103.18;;
80926;SDS011;70385;44.538;18.532;2024-01-10T06:10:59;280.70;;;107.38;;
80926;SDS011;70385;44.538;18.532;2024-01-10T06:13:28;289.95;;;111.63;;
80926;SDS011;70385;44.538;18.532;2024-01-10T06:15:54;256.52;;;104.22;;
80926;SDS011;70385;44.538;18.532;2024-01-10T06:18:20;258.55;;;105.78;;
80926;SDS011;70385;44.538;18.532;2024-01-10T06:20:46;263.02;;;105.07;;
80926;SDS011;70385;44.538;18.532;2024-01-10T06:23:13;272.27;;;114.95;;
80926;SDS011;70385;44.538;18.532;2024-01-10T06:25:38;305.85;;;126.38;;
80926;SDS011;70385;44.538;18.532;2024-01-10T06:28:05;296.48;;;119.10;;
80926;SDS011;70385;44.538;18.532;2024-01-10T06:30:31;305.83;;;114.47;;
80926;SDS011;70385;44.538;18.532;2024-01-10T06:32:57;284.38;;;114.95;;
80926;SDS011;70385;44.538;18.532;2024-01-10T06:35:30;286.48;;;109.97;;
80926;SDS011;70385;44.538;18.532;2024-01-10T06:37:59;253.80;;;98.85;;
80926;SDS011;70385;44.538;18.532;2024-01-10T06:40:29;260.75;;;101.85;;
80926;SDS011;70385;44.538;18.532;2024-01-10T06:42:55;267.27;;;103.43;;
80926;SDS011;70385;44.538;18.532;2024-01-10T06:45:22;270.10;;;103.05;;
80926;SDS011;70385;44.538;18.532;2024-01-10T06:47:48;254.32;;;99.63;;
80926;SDS011;70385;44.538;18.532;2024-01-10T06:50:14;261.85;;;100.28;;
80926;SDS011;70385;44.538;18.532;2024-01-10T06:52:41;257.00;;;96.68;;
80926;SDS011;70385;44.538;18.532;2024-01-10T06:55:07;292.25;;;109.38;;
80926;SDS011;70385;44.538;18.532;2024-01-10T06:57:33;304.67;;;113.68;;
80926;SDS011;70385;44.538;18.532;2024-01-10T07:00:00;333.60;;;127.07;;
80926;SDS011;70385;44.538;18.532;2024-01-10T07:02:38;442.35;;;152.27;;
80926;SDS011;70385;44.538;18.532;2024-01-10T07:05:08;412.08;;;142.77;;
80926;SDS011;70385;44.538;18.532;2024-01-10T07:07:35;374.60;;;133.93;;
80926;SDS011;70385;44.538;18.532;2024-01-10T07:10:22;355.60;;;128.35;;
80926;SDS011;70385;44.538;18.532;2024-01-10T07:12:52;372.95;;;132.88;;
80926;SDS011;70385;44.538;18.532;2024-01-10T07:15:22;440.27;;;169.55;;
80926;SDS011;70385;44.538;18.532;2024-01-10T07:17:49;404.63;;;145.68;;
80926;SDS011;70385;44.538;18.532;2024-01-10T07:20:16;432.70;;;144.93;;
80926;SDS011;70385;44.538;18.532;2024-01-10T07:22:44;460.23;;;153.82;;
80926;SDS011;70385;44.538;18.532;2024-01-10T07:25:11;493.27;;;159.07;;
80926;SDS011;70385;44.538;18.532;2024-01-10T07:27:40;475.50;;;165.35;;
80926;SDS011;70385;44.538;18.532;2024-01-10T07:30:07;477.02;;;158.57;;
80926;SDS011;70385;44.538;18.532;2024-01-10T07:32:42;459.40;;;161.70;;
80926;SDS011;70385;44.538;18.532;2024-01-10T07:35:09;483.85;;;166.30;;
80926;SDS011;70385;44.538;18.532;2024-01-10T07:37:39;451.27;;;158.40;;
80926;SDS011;70385;44.538;18.532;2024-01-10T07:40:07;437.63;;;148.32;;
80926;SDS011;70385;44.538;18.532;2024-01-10T07:42:54;443.23;;;148.93;;
80926;SDS011;70385;44.538;18.532;2024-01-10T07:45:22;437.98;;;143.32;;
80926;SDS011;70385;44.538;18.532;2024-01-10T07:47:48;472.67;;;160.15;;
80926;SDS011;70385;44.538;18.532;2024-01-10T07:50:17;552.83;;;193.45;;
80926;SDS011;70385;44.538;18.532;2024-01-10T07:52:49;526.13;;;194.70;;
80926;SDS011;70385;44.538;18.532;2024-01-10T07:55:40;570.70;;;210.57;;
80926;SDS011;70385;44.538;18.532;2024-01-10T07:58:06;534.58;;;203.18;;
80926;SDS011;70385;44.538;18.532;2024-01-10T08:00:32;519.33;;;197.82;;
80926;SDS011;70385;44.538;18.532;2024-01-10T08:02:58;580.90;;;215.57;;
80926;SDS011;70385;44.538;18.532;2024-01-10T08:05:25;556.70;;;201.70;;
80926;SDS011;70385;44.538;18.532;2024-01-10T08:07:51;534.63;;;192.13;;
80926;SDS011;70385;44.538;18.532;2024-01-10T08:10:17;544.03;;;193.90;;
80926;SDS011;70385;44.538;18.532;2024-01-10T08:12:43;549.90;;;193.35;;
80926;SDS011;70385;44.538;18.532;2024-01-10T08:15:14;503.17;;;173.00;;
80926;SDS011;70385;44.538;18.532;2024-01-10T08:17:41;484.10;;;157.73;;
80926;SDS011;70385;44.538;18.532;2024-01-10T08:20:26;458.60;;;147.90;;
80926;SDS011;70385;44.538;18.532;2024-01-10T08:23:03;470.38;;;154.98;;
80926;SDS011;70385;44.538;18.532;2024-01-10T08:25:36;449.75;;;139.93;;
80926;SDS011;70385;44.538;18.532;2024-01-10T08:28:06;460.42;;;153.02;;
80926;SDS011;70385;44.538;18.532;2024-01-10T08:30:40;504.92;;;172.98;;
80926;SDS011;70385;44.538;18.532;2024-01-10T08:33:16;452.27;;;140.57;;
80926;SDS011;70385;44.538;18.532;2024-01-10T08:35:48;449.27;;;147.88;;
80926;SDS011;70385;44.538;18.532;2024-01-10T08:38:22;453.88;;;154.15;;
80926;SDS011;70385;44.538;18.532;2024-01-10T08:40:51;436.25;;;149.85;;
80926;SDS011;70385;44.538;18.532;2024-01-10T08:43:32;461.33;;;158.60;;
80926;SDS011;70385;44.538;18.532;2024-01-10T08:46:04;465.38;;;151.85;;
80926;SDS011;70385;44.538;18.532;2024-01-10T08:48:42;446.25;;;150.13;;
80926;SDS011;70385;44.538;18.532;2024-01-10T08:51:10;448.13;;;145.38;;
80926;SDS011;70385;44.538;18.532;2024-01-10T08:53:37;422.30;;;133.73;;
80926;SDS011;70385;44.538;18.532;2024-01-10T08:56:03;394.55;;;123.88;;
80926;SDS011;70385;44.538;18.532;2024-01-10T08:58:38;401.30;;;127.70;;
80926;SDS011;70385;44.538;18.532;2024-01-10T09:01:21;410.35;;;132.40;;
80926;SDS011;70385;44.538;18.532;2024-01-10T09:03:58;409.42;;;127.50;;
80926;SDS011;70385;44.538;18.532;2024-01-10T09:07:03;451.08;;;144.13;;
80926;SDS011;70385;44.538;18.532;2024-01-10T09:10:06;449.15;;;154.90;;
80926;SDS011;70385;44.538;18.532;2024-01-10T09:12:55;417.70;;;146.18;;
80926;SDS011;70385;44.538;18.532;2024-01-10T09:15:32;385.05;;;123.05;;
80926;SDS011;70385;44.538;18.532;2024-01-10T09:18:01;341.17;;;111.88;;
80926;SDS011;70385;44.538;18.532;2024-01-10T09:20:31;396.45;;;126.95;;
80926;SDS011;70385;44.538;18.532;2024-01-10T09:23:42;380.25;;;124.32;;
80926;SDS011;70385;44.538;18.532;2024-01-10T09:26:19;373.48;;;123.28;;
80926;SDS011;70385;44.538;18.532;2024-01-10T09:28:45;391.83;;;130.65;;
80926;SDS011;70385;44.538;18.532;2024-01-10T09:31:12;407.27;;;135.32;;
80926;SDS011;70385;44.538;18.532;2024-01-10T09:33:40;433.98;;;144.32;;
80926;SDS011;70385;44.538;18.532;2024-01-10T09:36:09;386.50;;;120.15;;
80926;SDS011;70385;44.538;18.532;2024-01-10T09:38:45;359.30;;;115.72;;
80926;SDS011;70385;44.538;18.532;2024-01-10T09:41:16;341.23;;;109.93;;
80926;SDS011;70385;44.538;18.532;2024-01-10T09:43:56;317.00;;;100.45;;
80926;SDS011;70385;44.538;18.532;2024-01-10T09:46:24;348.25;;;114.93;;
80926;SDS011;70385;44.538;18.532;2024-01-10T09:48:58;344.90;;;107.10;;
80926;SDS011;70385;44.538;18.532;2024-01-10T09:51:35;349.52;;;106.45;;
80926;SDS011;70385;44.538;18.532;2024-01-10T09:54:10;320.45;;;104.47;;
80926;SDS011;70385;44.538;18.532;2024-01-10T09:56:36;314.63;;;104.20;;
80926;SDS011;70385;44.538;18.532;2024-01-10T09:59:03;322.65;;;104.10;;
80926;SDS011;70385;44.538;18.532;2024-01-10T10:01:42;325.38;;;106.55;;
80926;SDS011;70385;44.538;18.532;2024-01-10T10:04:13;323.13;;;98.80;;
80926;SDS011;70385;44.538;18.532;2024-01-10T10:06:45;307.65;;;100.25;;
80926;SDS011;70385;44.538;18.532;2024-01-10T10:09:14;313.48;;;94.07;;
80926;SDS011;70385;44.538;18.532;2024-01-10T10:11:42;313.23;;;95.47;;
80926;SDS011;70385;44.538;18.532;2024-01-10T10:14:15;327.00;;;101.38;;
80926;SDS011;70385;44.538;18.532;2024-01-10T10:19:44;288.83;;;86.10;;
80926;SDS011;70385;44.538;18.532;2024-01-10T10:22:10;289.25;;;84.10;;
80926;SDS011;70385;44.538;18.532;2024-01-10T10:24:48;311.92;;;97.25;;
80926;SDS011;70385;44.538;18.532;2024-01-10T10:27:20;327.88;;;97.90;;
80926;SDS011;70385;44.538;18.532;2024-01-10T10:29:46;285.77;;;92.93;;
80926;SDS011;70385;44.538;18.532;2024-01-10T10:32:16;301.85;;;98.57;;
80926;SDS011;70385;44.538;18.532;2024-01-10T10:34:47;307.65;;;95.05;;
80926;SDS011;70385;44.538;18.532;2024-01-10T10:37:23;326.42;;;101.90;;
80926;SDS011;70385;44.538;18.532;2024-01-10T10:39:52;333.20;;;96.15;;
80926;SDS011;70385;44.538;18.532;2024-01-10T10:42:24;306.65;;;90.13;;
80926;SDS011;70385;44.538;18.532;2024-01-10T10:44:54;374.60;;;105.18;;
80926;SDS011;70385;44.538;18.532;2024-01-10T10:47:46;316.08;;;99.25;;
80926;SDS011;70385;44.538;18.532;2024-01-10T10:50:24;316.20;;;97.75;;
80926;SDS011;70385;44.538;18.532;2024-01-10T10:52:58;314.60;;;97.40;;
80926;SDS011;70385;44.538;18.532;2024-01-10T10:55:27;289.50;;;87.78;;
80926;SDS011;70385;44.538;18.532;2024-01-10T10:57:55;273.45;;;84.05;;
80926;SDS011;70385;44.538;18.532;2024-01-10T11:00:22;284.50;;;87.07;;
80926;SDS011;70385;44.538;18.532;2024-01-10T11:02:56;285.42;;;82.43;;
80926;SDS011;70385;44.538;18.532;2024-01-10T11:05:33;329.15;;;94.47;;
80926;SDS011;70385;44.538;18.532;2024-01-10T11:10:41;359.77;;;101.75;;
80926;SDS011;70385;44.538;18.532;2024-01-10T11:13:21;356.08;;;99.65;;
80926;SDS011;70385;44.538;18.532;2024-01-10T11:16:46;341.50;;;98.80;;
80926;SDS011;70385;44.538;18.532;2024-01-10T11:25:12;450.73;;;134.70;;
80926;SDS011;70385;44.538;18.532;2024-01-10T11:27:45;442.30;;;120.05;;
80926;SDS011;70385;44.538;18.532;2024-01-10T11:33:35;387.95;;;103.82;;
80926;SDS011;70385;44.538;18.532;2024-01-10T11:39:01;384.88;;;105.88;;
80926;SDS011;70385;44.538;18.532;2024-01-10T11:41:30;333.08;;;97.38;;
80926;SDS011;70385;44.538;18.532;2024-01-10T11:46:38;341.48;;;96.28;;
80926;SDS011;70385;44.538;18.532;2024-01-10T11:49:24;351.08;;;96.63;;
80926;SDS011;70385;44.538;18.532;2024-01-10T11:51:57;328.92;;;95.82;;
80926;SDS011;70385;44.538;18.532;2024-01-10T12:00:03;329.60;;;96.70;;
80926;SDS011;70385;44.538;18.532;2024-01-10T12:02:40;291.60;;;85.90;;
80926;SDS011;70385;44.538;18.532;2024-01-10T12:05:09;304.90;;;91.38;;
80926;SDS011;70385;44.538;18.532;2024-01-10T12:07:38;308.48;;;93.97;;
80926;SDS011;70385;44.538;18.532;2024-01-10T12:10:13;320.33;;;94.70;;
80926;SDS011;70385;44.538;18.532;2024-01-10T12:12:39;307.38;;;96.30;;
80926;SDS011;70385;44.538;18.532;2024-01-10T12:15:05;304.10;;;93.72;;
80926;SDS011;70385;44.538;18.532;2024-01-10T12:17:31;308.02;;;89.60;;
80926;SDS011;70385;44.538;18.532;2024-01-10T12:20:04;322.08;;;89.45;;
80926;SDS011;70385;44.538;18.532;2024-01-10T12:22:37;307.38;;;90.40;;
80926;SDS011;70385;44.538;18.532;2024-01-10T12:25:22;316.30;;;91.28;;
80926;SDS011;70385;44.538;18.532;2024-01-10T12:27:51;298.45;;;90.40;;
80926;SDS011;70385;44.538;18.532;2024-01-10T12:30:19;265.55;;;82.13;;
80926;SDS011;70385;44.538;18.532;2024-01-10T12:33:00;309.98;;;94.93;;
80926;SDS011;70385;44.538;18.532;2024-01-10T12:35:30;318.42;;;91.65;;
80926;SDS011;70385;44.538;18.532;2024-01-10T12:37:59;311.05;;;92.90;;
80926;SDS011;70385;44.538;18.532;2024-01-10T12:40:31;299.60;;;93.72;;
80926;SDS011;70385;44.538;18.532;2024-01-10T12:43:26;344.02;;;98.63;;
80926;SDS011;70385;44.538;18.532;2024-01-10T12:46:04;329.13;;;100.75;;
80926;SDS011;70385;44.538;18.532;2024-01-10T12:48:39;303.92;;;92.28;;
80926;SDS011;70385;44.538;18.532;2024-01-10T12:51:13;301.33;;;99.93;;
80926;SDS011;70385;44.538;18.532;2024-01-10T12:53:42;326.33;;;99.13;;
80926;SDS011;70385;44.538;18.532;2024-01-10T12:56:15;342.40;;;104.65;;
80926;SDS011;70385;44.538;18.532;2024-01-10T12:58:42;346.55;;;108.18;;
80926;SDS011;70385;44.538;18.532;2024-01-10T13:01:08;338.77;;;108.78;;
80926;SDS011;70385;44.538;18.532;2024-01-10T13:03:34;318.30;;;105.10;;
80926;SDS011;70385;44.538;18.532;2024-01-10T13:06:04;302.45;;;101.22;;
80926;SDS011;70385;44.538;18.532;2024-01-10T13:08:36;316.30;;;104.35;;
80926;SDS011;70385;44.538;18.532;2024-01-10T13:14:18;307.67;;;106.95;;
80926;SDS011;70385;44.538;18.532;2024-01-10T13:16:49;318.25;;;105.47;;
80926;SDS011;70385;44.538;18.532;2024-01-10T13:19:22;344.25;;;118.30;;
80926;SDS011;70385;44.538;18.532;2024-01-10T13:21:48;346.90;;;110.68;;
80926;SDS011;70385;44.538;18.532;2024-01-10T13:24:16;341.80;;;113.07;;
80926;SDS011;70385;44.538;18.532;2024-01-10T13:26:58;368.50;;;116.63;;
80926;SDS011;70385;44.538;18.532;2024-01-10T13:29:25;347.08;;;117.72;;
80926;SDS011;70385;44.538;18.532;2024-01-10T13:31:54;337.27;;;115.55;;
80926;SDS011;70385;44.538;18.532;2024-01-10T13:34:24;358.92;;;125.80;;
80926;SDS011;70385;44.538;18.532;2024-01-10T13:36:58;380.02;;;124.68;;
80926;SDS011;70385;44.538;18.532;2024-01-10T13:39:24;364.95;;;127.28;;
80926;SDS011;70385;44.538;18.532;2024-01-10T13:41:52;384.67;;;133.88;;
80926;SDS011;70385;44.538;18.532;2024-01-10T13:44:22;392.73;;;136.43;;
80926;SDS011;70385;44.538;18.532;2024-01-10T13:46:54;385.65;;;134.13;;
80926;SDS011;70385;44.538;18.532;2024-01-10T13:49:39;320.50;;;111.10;;
80926;SDS011;70385;44.538;18.532;2024-01-10T13:52:08;324.25;;;109.22;;
80926;SDS011;70385;44.538;18.532;2024-01-10T13:54:40;287.42;;;103.50;;
80926;SDS011;70385;44.538;18.532;2024-01-10T13:57:16;259.33;;;91.15;;
80926;SDS011;70385;44.538;18.532;2024-01-10T13:59:41;277.13;;;95.55;;
80926;SDS011;70385;44.538;18.532;2024-01-10T14:02:17;277.50;;;95.20;;
80926;SDS011;70385;44.538;18.532;2024-01-10T14:04:45;261.60;;;91.57;;
80926;SDS011;70385;44.538;18.532;2024-01-10T14:07:13;297.60;;;105.30;;
80926;SDS011;70385;44.538;18.532;2024-01-10T14:09:39;306.10;;;100.10;;
80926;SDS011;70385;44.538;18.532;2024-01-10T14:12:05;322.58;;;104.00;;
80926;SDS011;70385;44.538;18.532;2024-01-10T14:14:43;319.00;;;101.38;;
80926;SDS011;70385;44.538;18.532;2024-01-10T14:17:18;322.45;;;104.72;;
80926;SDS011;70385;44.538;18.532;2024-01-10T14:19:59;325.08;;;104.50;;
80926;SDS011;70385;44.538;18.532;2024-01-10T14:22:29;321.10;;;101.17;;
80926;SDS011;70385;44.538;18.532;2024-01-10T14:25:00;326.27;;;99.15;;
80926;SDS011;70385;44.538;18.532;2024-01-10T14:27:36;314.98;;;100.72;;
80926;SDS011;70385;44.538;18.532;2024-01-10T14:30:06;330.83;;;105.28;;
80926;SDS011;70385;44.538;18.532;2024-01-10T14:32:36;368.25;;;118.20;;
80926;SDS011;70385;44.538;18.532;2024-01-10T14:35:06;354.85;;;117.03;;
80926;SDS011;70385;44.538;18.532;2024-01-10T14:37:41;218.73;;;82.60;;
80926;SDS011;70385;44.538;18.532;2024-01-10T14:40:07;214.73;;;77.90;;
80926;SDS011;70385;44.538;18.532;2024-01-10T14:42:34;218.55;;;83.95;;
80926;SDS011;70385;44.538;18.532;2024-01-10T14:45:04;202.00;;;73.78;;
80926;SDS011;70385;44.538;18.532;2024-01-10T14:47:30;188.05;;;71.90;;
80926;SDS011;70385;44.538;18.532;2024-01-10T14:50:00;185.98;;;72.63;;
80926;SDS011;70385;44.538;18.532;2024-01-10T14:52:29;173.32;;;69.10;;
80926;SDS011;70385;44.538;18.532;2024-01-10T14:54:57;197.77;;;76.68;;
80926;SDS011;70385;44.538;18.532;2024-01-10T14:57:23;213.43;;;83.00;;
80926;SDS011;70385;44.538;18.532;2024-01-10T14:59:50;207.73;;;84.45;;
80926;SDS011;70385;44.538;18.532;2024-01-10T15:02:25;213.10;;;85.22;;
80926;SDS011;70385;44.538;18.532;2024-01-10T15:05:01;192.13;;;78.90;;
80926;SDS011;70385;44.538;18.532;2024-01-10T15:07:34;173.80;;;70.20;;
80926;SDS011;70385;44.538;18.532;2024-01-10T15:10:00;163.60;;;67.80;;
80926;SDS011;70385;44.538;18.532;2024-01-10T15:12:30;159.48;;;68.45;;
80926;SDS011;70385;44.538;18.532;2024-01-10T15:14:57;151.40;;;65.93;;